sensor_id;sensor_type;location;lat;lon;timestamp;temperature;humidity
17174;DHT22;8702;48.130;-1.696;2023-04-30T00:00:51;15.60;99.90
17174;DHT22;8702;48.130;-1.696;2023-04-30T00:03:20;16.00;99.90
17174;DHT22;8702;48.130;-1.696;2023-04-30T00:05:49;15.60;99.90
17174;DHT22;8702;48.130;-1.696;2023-04-30T00:08:19;15.60;99.90
17174;DHT22;8702;48.130;-1.696;2023-04-30T00:10:46;15.60;99.90
17174;DHT22;8702;48.130;-1.696;2023-04-30T00:13:14;15.60;99.90
17174;DHT22;8702;48.130;-1.696;2023-04-30T00:15:43;15.60;99.90
17174;DHT22;8702;48.130;-1.696;2023-04-30T00:18:10;15.50;99.90
17174;DHT22;8702;48.130;-1.696;2023-04-30T00:20:37;15.90;99.90
17174;DHT22;8702;48.130;-1.696;2023-04-30T00:23:04;15.60;99.90
17174;DHT22;8702;48.130;-1.696;2023-04-30T00:25:32;15.70;99.90
17174;DHT22;8702;48.130;-1.696;2023-04-30T00:27:59;15.60;99.90
17174;DHT22;8702;48.130;-1.696;2023-04-30T00:30:26;15.60;99.90
17174;DHT22;8702;48.130;-1.696;2023-04-30T00:32:54;15.60;99.90
17174;DHT22;8702;48.130;-1.696;2023-04-30T00:35:20;15.60;99.90
17174;DHT22;8702;48.130;-1.696;2023-04-30T00:37:47;15.50;99.90
17174;DHT22;8702;48.130;-1.696;2023-04-30T00:40:14;15.60;99.90
17174;DHT22;8702;48.130;-1.696;2023-04-30T00:42:43;15.50;99.90
17174;DHT22;8702;48.130;-1.696;2023-04-30T00:45:10;15.50;99.90
17174;DHT22;8702;48.130;-1.696;2023-04-30T00:47:37;15.50;99.90
17174;DHT22;8702;48.130;-1.696;2023-04-30T00:50:09;15.50;99.90
17174;DHT22;8702;48.130;-1.696;2023-04-30T00:52:40;15.20;99.90
17174;DHT22;8702;48.130;-1.696;2023-04-30T00:55:08;15.60;99.90
17174;DHT22;8702;48.130;-1.696;2023-04-30T00:57:43;15.60;99.90
17174;DHT22;8702;48.130;-1.696;2023-04-30T01:00:11;15.50;99.90
17174;DHT22;8702;48.130;-1.696;2023-04-30T01:02:38;15.40;99.90
17174;DHT22;8702;48.130;-1.696;2023-04-30T01:05:06;15.30;99.90
17174;DHT22;8702;48.130;-1.696;2023-04-30T01:07:34;15.20;99.90
17174;DHT22;8702;48.130;-1.696;2023-04-30T01:10:03;15.10;99.90
17174;DHT22;8702;48.130;-1.696;2023-04-30T01:12:38;15.00;99.90
17174;DHT22;8702;48.130;-1.696;2023-04-30T01:15:18;15.00;99.90
17174;DHT22;8702;48.130;-1.696;2023-04-30T01:17:55;14.80;99.90
17174;DHT22;8702;48.130;-1.696;2023-04-30T01:20:27;14.80;99.90
17174;DHT22;8702;48.130;-1.696;2023-04-30T01:23:01;14.80;99.90
17174;DHT22;8702;48.130;-1.696;2023-04-30T01:25:50;14.90;99.90
17174;DHT22;8702;48.130;-1.696;2023-04-30T01:28:24;14.80;99.90
17174;DHT22;8702;48.130;-1.696;2023-04-30T01:30:57;14.80;99.90
17174;DHT22;8702;48.130;-1.696;2023-04-30T01:33:24;14.80;99.90
17174;DHT22;8702;48.130;-1.696;2023-04-30T01:36:05;14.80;99.90
17174;DHT22;8702;48.130;-1.696;2023-04-30T01:38:49;14.80;99.90
17174;DHT22;8702;48.130;-1.696;2023-04-30T01:41:30;14.80;99.90
17174;DHT22;8702;48.130;-1.696;2023-04-30T01:44:11;14.80;99.90
17174;DHT22;8702;48.130;-1.696;2023-04-30T01:46:48;14.70;99.90
17174;DHT22;8702;48.130;-1.696;2023-04-30T01:49:24;14.70;99.90
17174;DHT22;8702;48.130;-1.696;2023-04-30T01:52:02;14.70;99.90
17174;DHT22;8702;48.130;-1.696;2023-04-30T01:54:41;14.70;99.90
17174;DHT22;8702;48.130;-1.696;2023-04-30T01:57:17;14.70;99.90
17174;DHT22;8702;48.130;-1.696;2023-04-30T01:59:48;14.70;99.90
17174;DHT22;8702;48.130;-1.696;2023-04-30T02:02:15;14.70;99.90
17174;DHT22;8702;48.130;-1.696;2023-04-30T02:04:42;14.80;99.90
17174;DHT22;8702;48.130;-1.696;2023-04-30T02:07:19;14.80;99.90
17174;DHT22;8702;48.130;-1.696;2023-04-30T02:09:47;14.70;99.90
17174;DHT22;8702;48.130;-1.696;2023-04-30T02:12:14;14.70;99.90
17174;DHT22;8702;48.130;-1.696;2023-04-30T02:14:41;14.70;99.90
17174;DHT22;8702;48.130;-1.696;2023-04-30T02:17:09;14.70;99.90
17174;DHT22;8702;48.130;-1.696;2023-04-30T02:19:41;14.60;99.90
17174;DHT22;8702;48.130;-1.696;2023-04-30T02:22:08;14.70;99.90
17174;DHT22;8702;48.130;-1.696;2023-04-30T02:24:35;14.60;99.90
17174;DHT22;8702;48.130;-1.696;2023-04-30T02:27:05;14.70;99.90
17174;DHT22;8702;48.130;-1.696;2023-04-30T02:29:32;14.60;99.90
17174;DHT22;8702;48.130;-1.696;2023-04-30T02:31:59;14.60;99.90
17174;DHT22;8702;48.130;-1.696;2023-04-30T02:34:27;14.60;99.90
17174;DHT22;8702;48.130;-1.696;2023-04-30T02:36:54;14.60;99.90
17174;DHT22;8702;48.130;-1.696;2023-04-30T02:39:21;14.60;99.90
17174;DHT22;8702;48.130;-1.696;2023-04-30T02:41:48;14.60;99.90
17174;DHT22;8702;48.130;-1.696;2023-04-30T02:44:15;14.50;99.90
17174;DHT22;8702;48.130;-1.696;2023-04-30T02:46:42;14.60;99.90
17174;DHT22;8702;48.130;-1.696;2023-04-30T02:49:09;14.50;99.90
17174;DHT22;8702;48.130;-1.696;2023-04-30T02:51:37;14.50;99.90
17174;DHT22;8702;48.130;-1.696;2023-04-30T02:54:05;14.40;99.90
17174;DHT22;8702;48.130;-1.696;2023-04-30T02:56:32;14.40;99.90
17174;DHT22;8702;48.130;-1.696;2023-04-30T02:58:59;14.40;99.90
17174;DHT22;8702;48.130;-1.696;2023-04-30T03:01:26;14.40;99.90
17174;DHT22;8702;48.130;-1.696;2023-04-30T03:03:53;14.30;99.90
17174;DHT22;8702;48.130;-1.696;2023-04-30T03:06:20;14.20;99.90
17174;DHT22;8702;48.130;-1.696;2023-04-30T03:08:49;14.20;99.90
17174;DHT22;8702;48.130;-1.696;2023-04-30T03:11:15;14.20;99.90
17174;DHT22;8702;48.130;-1.696;2023-04-30T03:13:42;14.20;99.90
17174;DHT22;8702;48.130;-1.696;2023-04-30T03:16:09;14.20;99.90
17174;DHT22;8702;48.130;-1.696;2023-04-30T03:18:36;14.10;99.90
17174;DHT22;8702;48.130;-1.696;2023-04-30T03:21:03;14.10;99.90
17174;DHT22;8702;48.130;-1.696;2023-04-30T03:23:30;14.10;99.90
17174;DHT22;8702;48.130;-1.696;2023-04-30T03:25:59;14.10;99.90
17174;DHT22;8702;48.130;-1.696;2023-04-30T03:28:25;14.00;99.90
17174;DHT22;8702;48.130;-1.696;2023-04-30T03:30:52;13.90;99.90
17174;DHT22;8702;48.130;-1.696;2023-04-30T03:33:20;13.80;99.90
17174;DHT22;8702;48.130;-1.696;2023-04-30T03:35:47;13.90;99.90
17174;DHT22;8702;48.130;-1.696;2023-04-30T03:38:15;13.90;99.90
17174;DHT22;8702;48.130;-1.696;2023-04-30T03:40:41;13.90;99.90
17174;DHT22;8702;48.130;-1.696;2023-04-30T03:43:11;13.90;99.90
17174;DHT22;8702;48.130;-1.696;2023-04-30T03:45:38;14.00;99.90
17174;DHT22;8702;48.130;-1.696;2023-04-30T03:48:05;14.10;99.90
17174;DHT22;8702;48.130;-1.696;2023-04-30T03:50:32;14.10;99.90
17174;DHT22;8702;48.130;-1.696;2023-04-30T03:52:59;14.10;99.90
17174;DHT22;8702;48.130;-1.696;2023-04-30T03:55:26;14.20;99.90
17174;DHT22;8702;48.130;-1.696;2023-04-30T03:57:55;14.20;99.90
17174;DHT22;8702;48.130;-1.696;2023-04-30T04:00:23;14.20;99.90
17174;DHT22;8702;48.130;-1.696;2023-04-30T04:02:50;14.20;99.90
17174;DHT22;8702;48.130;-1.696;2023-04-30T04:05:17;14.10;99.90
17174;DHT22;8702;48.130;-1.696;2023-04-30T04:07:44;14.00;99.90
17174;DHT22;8702;48.130;-1.696;2023-04-30T04:10:12;13.90;99.90
17174;DHT22;8702;48.130;-1.696;2023-04-30T04:12:38;13.90;99.90
17174;DHT22;8702;48.130;-1.696;2023-04-30T04:15:07;13.90;99.90
17174;DHT22;8702;48.130;-1.696;2023-04-30T04:17:35;13.80;99.90
17174;DHT22;8702;48.130;-1.696;2023-04-30T04:20:02;13.80;99.90
17174;DHT22;8702;48.130;-1.696;2023-04-30T04:22:31;13.90;99.90
17174;DHT22;8702;48.130;-1.696;2023-04-30T04:24:58;13.80;99.90
17174;DHT22;8702;48.130;-1.696;2023-04-30T04:27:25;13.80;99.90
17174;DHT22;8702;48.130;-1.696;2023-04-30T04:29:53;13.60;99.90
17174;DHT22;8702;48.130;-1.696;2023-04-30T04:32:20;13.50;99.90
17174;DHT22;8702;48.130;-1.696;2023-04-30T04:34:49;13.40;99.90
17174;DHT22;8702;48.130;-1.696;2023-04-30T04:37:18;13.40;99.90
17174;DHT22;8702;48.130;-1.696;2023-04-30T04:39:45;13.40;99.90
17174;DHT22;8702;48.130;-1.696;2023-04-30T04:42:13;13.40;99.90
17174;DHT22;8702;48.130;-1.696;2023-04-30T04:44:41;13.30;99.90
17174;DHT22;8702;48.130;-1.696;2023-04-30T04:47:08;13.30;99.90
17174;DHT22;8702;48.130;-1.696;2023-04-30T04:49:37;13.30;99.90
17174;DHT22;8702;48.130;-1.696;2023-04-30T04:52:05;13.30;99.90
17174;DHT22;8702;48.130;-1.696;2023-04-30T04:54:33;13.30;99.90
17174;DHT22;8702;48.130;-1.696;2023-04-30T04:57:00;13.40;99.90
17174;DHT22;8702;48.130;-1.696;2023-04-30T04:59:27;13.40;99.90
17174;DHT22;8702;48.130;-1.696;2023-04-30T05:01:54;13.50;99.90
17174;DHT22;8702;48.130;-1.696;2023-04-30T05:04:22;13.50;99.90
17174;DHT22;8702;48.130;-1.696;2023-04-30T05:06:48;13.50;99.90
17174;DHT22;8702;48.130;-1.696;2023-04-30T05:09:17;13.50;99.90
17174;DHT22;8702;48.130;-1.696;2023-04-30T05:11:44;13.60;99.90
17174;DHT22;8702;48.130;-1.696;2023-04-30T05:14:13;13.50;99.90
17174;DHT22;8702;48.130;-1.696;2023-04-30T05:16:40;13.60;99.90
17174;DHT22;8702;48.130;-1.696;2023-04-30T05:19:07;13.70;99.90
17174;DHT22;8702;48.130;-1.696;2023-04-30T05:21:34;13.60;99.90
17174;DHT22;8702;48.130;-1.696;2023-04-30T05:24:02;13.60;99.90
17174;DHT22;8702;48.130;-1.696;2023-04-30T05:26:32;13.60;99.90
17174;DHT22;8702;48.130;-1.696;2023-04-30T05:28:59;13.60;99.90
17174;DHT22;8702;48.130;-1.696;2023-04-30T05:31:26;13.60;99.90
17174;DHT22;8702;48.130;-1.696;2023-04-30T05:33:53;13.60;99.90
17174;DHT22;8702;48.130;-1.696;2023-04-30T05:36:19;13.60;99.90
17174;DHT22;8702;48.130;-1.696;2023-04-30T05:38:46;13.70;99.90
17174;DHT22;8702;48.130;-1.696;2023-04-30T05:41:13;13.70;99.90
17174;DHT22;8702;48.130;-1.696;2023-04-30T05:43:42;13.70;99.90
17174;DHT22;8702;48.130;-1.696;2023-04-30T05:46:09;13.70;99.90
17174;DHT22;8702;48.130;-1.696;2023-04-30T05:48:36;13.80;99.90
17174;DHT22;8702;48.130;-1.696;2023-04-30T05:51:03;13.80;99.90
17174;DHT22;8702;48.130;-1.696;2023-04-30T05:53:31;13.80;99.90
17174;DHT22;8702;48.130;-1.696;2023-04-30T05:55:58;13.80;99.90
17174;DHT22;8702;48.130;-1.696;2023-04-30T05:58:25;13.90;99.90
17174;DHT22;8702;48.130;-1.696;2023-04-30T06:00:53;13.90;99.90
17174;DHT22;8702;48.130;-1.696;2023-04-30T06:03:20;13.90;99.90
17174;DHT22;8702;48.130;-1.696;2023-04-30T06:05:47;14.00;99.90
17174;DHT22;8702;48.130;-1.696;2023-04-30T06:08:14;14.10;99.90
17174;DHT22;8702;48.130;-1.696;2023-04-30T06:10:41;14.10;99.90
17174;DHT22;8702;48.130;-1.696;2023-04-30T06:13:11;14.10;99.90
17174;DHT22;8702;48.130;-1.696;2023-04-30T06:15:39;14.20;99.90
17174;DHT22;8702;48.130;-1.696;2023-04-30T06:18:07;14.20;99.90
17174;DHT22;8702;48.130;-1.696;2023-04-30T06:20:34;14.20;99.90
17174;DHT22;8702;48.130;-1.696;2023-04-30T06:23:04;14.30;99.90
17174;DHT22;8702;48.130;-1.696;2023-04-30T06:25:31;14.40;99.90
17174;DHT22;8702;48.130;-1.696;2023-04-30T06:27:58;14.40;99.90
17174;DHT22;8702;48.130;-1.696;2023-04-30T06:30:26;14.40;99.90
17174;DHT22;8702;48.130;-1.696;2023-04-30T06:32:54;14.50;99.90
17174;DHT22;8702;48.130;-1.696;2023-04-30T06:35:23;14.50;99.90
17174;DHT22;8702;48.130;-1.696;2023-04-30T06:37:50;14.50;99.90
17174;DHT22;8702;48.130;-1.696;2023-04-30T06:40:17;14.60;99.90
17174;DHT22;8702;48.130;-1.696;2023-04-30T06:42:45;14.60;99.90
17174;DHT22;8702;48.130;-1.696;2023-04-30T06:45:12;14.70;99.90
17174;DHT22;8702;48.130;-1.696;2023-04-30T06:47:40;14.70;99.90
17174;DHT22;8702;48.130;-1.696;2023-04-30T06:50:07;14.70;99.90
17174;DHT22;8702;48.130;-1.696;2023-04-30T06:52:36;14.80;99.90
17174;DHT22;8702;48.130;-1.696;2023-04-30T06:55:03;14.80;99.90
17174;DHT22;8702;48.130;-1.696;2023-04-30T06:57:31;14.80;99.90
17174;DHT22;8702;48.130;-1.696;2023-04-30T06:59:58;14.90;99.90
17174;DHT22;8702;48.130;-1.696;2023-04-30T07:02:26;14.90;99.90
17174;DHT22;8702;48.130;-1.696;2023-04-30T07:04:53;14.90;99.90
17174;DHT22;8702;48.130;-1.696;2023-04-30T07:07:22;14.90;99.90
17174;DHT22;8702;48.130;-1.696;2023-04-30T07:09:50;15.00;99.90
17174;DHT22;8702;48.130;-1.696;2023-04-30T07:12:17;15.00;99.90
17174;DHT22;8702;48.130;-1.696;2023-04-30T07:14:44;15.00;99.90
17174;DHT22;8702;48.130;-1.696;2023-04-30T07:17:11;15.00;99.90
17174;DHT22;8702;48.130;-1.696;2023-04-30T07:19:38;15.10;99.90
17174;DHT22;8702;48.130;-1.696;2023-04-30T07:22:05;15.20;99.90
17174;DHT22;8702;48.130;-1.696;2023-04-30T07:24:33;15.20;99.90
17174;DHT22;8702;48.130;-1.696;2023-04-30T07:27:01;15.20;99.90
17174;DHT22;8702;48.130;-1.696;2023-04-30T07:29:29;15.20;99.90
17174;DHT22;8702;48.130;-1.696;2023-04-30T07:31:56;15.30;99.90
17174;DHT22;8702;48.130;-1.696;2023-04-30T07:34:24;15.30;99.90
17174;DHT22;8702;48.130;-1.696;2023-04-30T07:36:52;15.30;99.90
17174;DHT22;8702;48.130;-1.696;2023-04-30T07:39:19;15.40;99.90
17174;DHT22;8702;48.130;-1.696;2023-04-30T07:41:46;15.60;99.90
17174;DHT22;8702;48.130;-1.696;2023-04-30T07:44:14;15.60;99.90
17174;DHT22;8702;48.130;-1.696;2023-04-30T07:46:42;15.50;99.90
17174;DHT22;8702;48.130;-1.696;2023-04-30T07:49:09;15.50;99.90
17174;DHT22;8702;48.130;-1.696;2023-04-30T07:51:36;15.60;99.90
17174;DHT22;8702;48.130;-1.696;2023-04-30T07:54:03;15.60;99.90
17174;DHT22;8702;48.130;-1.696;2023-04-30T07:56:30;15.70;99.90
17174;DHT22;8702;48.130;-1.696;2023-04-30T07:58:57;15.80;99.90
17174;DHT22;8702;48.130;-1.696;2023-04-30T08:01:26;15.80;99.90
17174;DHT22;8702;48.130;-1.696;2023-04-30T08:03:52;15.90;99.90
17174;DHT22;8702;48.130;-1.696;2023-04-30T08:06:19;16.00;99.90
17174;DHT22;8702;48.130;-1.696;2023-04-30T08:08:47;16.00;99.90
17174;DHT22;8702;48.130;-1.696;2023-04-30T08:11:14;16.10;99.90
17174;DHT22;8702;48.130;-1.696;2023-04-30T08:13:41;16.10;99.90
17174;DHT22;8702;48.130;-1.696;2023-04-30T08:16:08;16.20;99.90
17174;DHT22;8702;48.130;-1.696;2023-04-30T08:18:37;16.20;99.90
17174;DHT22;8702;48.130;-1.696;2023-04-30T08:21:08;16.20;99.90
17174;DHT22;8702;48.130;-1.696;2023-04-30T08:23:36;16.30;99.90
17174;DHT22;8702;48.130;-1.696;2023-04-30T08:26:03;16.40;99.90
17174;DHT22;8702;48.130;-1.696;2023-04-30T08:28:30;16.40;99.90
17174;DHT22;8702;48.130;-1.696;2023-04-30T08:30:57;16.50;99.90
17174;DHT22;8702;48.130;-1.696;2023-04-30T08:33:24;16.50;99.90
17174;DHT22;8702;48.130;-1.696;2023-04-30T08:35:52;16.60;99.90
17174;DHT22;8702;48.130;-1.696;2023-04-30T08:38:19;16.60;99.90
17174;DHT22;8702;48.130;-1.696;2023-04-30T08:40:51;16.60;99.90
17174;DHT22;8702;48.130;-1.696;2023-04-30T08:43:21;16.70;99.90
17174;DHT22;8702;48.130;-1.696;2023-04-30T08:45:49;16.70;99.90
17174;DHT22;8702;48.130;-1.696;2023-04-30T08:48:18;16.80;99.90
17174;DHT22;8702;48.130;-1.696;2023-04-30T08:50:47;16.80;99.90
17174;DHT22;8702;48.130;-1.696;2023-04-30T08:53:16;16.80;99.90
17174;DHT22;8702;48.130;-1.696;2023-04-30T08:55:46;16.90;99.90
17174;DHT22;8702;48.130;-1.696;2023-04-30T08:58:13;16.90;99.90
17174;DHT22;8702;48.130;-1.696;2023-04-30T09:00:40;16.90;99.90
17174;DHT22;8702;48.130;-1.696;2023-04-30T09:03:07;17.00;99.90
17174;DHT22;8702;48.130;-1.696;2023-04-30T09:05:36;17.00;99.90
17174;DHT22;8702;48.130;-1.696;2023-04-30T09:08:03;17.00;99.90
17174;DHT22;8702;48.130;-1.696;2023-04-30T09:10:32;17.10;99.90
17174;DHT22;8702;48.130;-1.696;2023-04-30T09:13:01;17.00;99.90
17174;DHT22;8702;48.130;-1.696;2023-04-30T09:15:28;17.10;99.90
17174;DHT22;8702;48.130;-1.696;2023-04-30T09:18:09;17.10;99.90
17174;DHT22;8702;48.130;-1.696;2023-04-30T09:20:36;17.20;99.90
17174;DHT22;8702;48.130;-1.696;2023-04-30T09:23:07;17.20;99.90
17174;DHT22;8702;48.130;-1.696;2023-04-30T09:25:39;17.30;99.90
17174;DHT22;8702;48.130;-1.696;2023-04-30T09:28:08;17.20;99.90
17174;DHT22;8702;48.130;-1.696;2023-04-30T09:30:36;17.30;99.90
17174;DHT22;8702;48.130;-1.696;2023-04-30T09:33:03;17.20;99.90
17174;DHT22;8702;48.130;-1.696;2023-04-30T09:35:31;17.20;99.90
17174;DHT22;8702;48.130;-1.696;2023-04-30T09:37:59;17.20;99.90
17174;DHT22;8702;48.130;-1.696;2023-04-30T09:40:34;17.00;99.90
17174;DHT22;8702;48.130;-1.696;2023-04-30T09:43:04;17.00;99.90
17174;DHT22;8702;48.130;-1.696;2023-04-30T09:45:41;17.10;99.90
17174;DHT22;8702;48.130;-1.696;2023-04-30T09:48:09;17.10;99.90
17174;DHT22;8702;48.130;-1.696;2023-04-30T09:50:37;17.20;99.90
17174;DHT22;8702;48.130;-1.696;2023-04-30T09:53:05;17.20;99.90
17174;DHT22;8702;48.130;-1.696;2023-04-30T09:55:34;17.30;99.90
17174;DHT22;8702;48.130;-1.696;2023-04-30T09:58:05;17.20;99.90
17174;DHT22;8702;48.130;-1.696;2023-04-30T10:00:33;17.10;99.90
17174;DHT22;8702;48.130;-1.696;2023-04-30T10:03:05;16.80;99.90
17174;DHT22;8702;48.130;-1.696;2023-04-30T10:05:36;16.70;99.90
17174;DHT22;8702;48.130;-1.696;2023-04-30T10:08:06;16.60;99.90
17174;DHT22;8702;48.130;-1.696;2023-04-30T10:10:37;16.60;99.90
17174;DHT22;8702;48.130;-1.696;2023-04-30T10:13:10;16.40;99.90
17174;DHT22;8702;48.130;-1.696;2023-04-30T10:15:44;16.30;99.90
17174;DHT22;8702;48.130;-1.696;2023-04-30T10:18:18;16.30;99.90
17174;DHT22;8702;48.130;-1.696;2023-04-30T10:20:46;16.40;99.90
17174;DHT22;8702;48.130;-1.696;2023-04-30T10:23:14;16.30;99.90
17174;DHT22;8702;48.130;-1.696;2023-04-30T10:25:42;16.40;99.90
17174;DHT22;8702;48.130;-1.696;2023-04-30T10:28:11;16.50;99.90
17174;DHT22;8702;48.130;-1.696;2023-04-30T10:30:40;16.50;99.90
17174;DHT22;8702;48.130;-1.696;2023-04-30T10:33:14;16.70;99.90
17174;DHT22;8702;48.130;-1.696;2023-04-30T10:36:05;16.80;99.90
17174;DHT22;8702;48.130;-1.696;2023-04-30T10:38:35;16.90;99.90
17174;DHT22;8702;48.130;-1.696;2023-04-30T10:41:05;16.90;99.90
17174;DHT22;8702;48.130;-1.696;2023-04-30T10:43:35;17.00;99.90
17174;DHT22;8702;48.130;-1.696;2023-04-30T10:46:02;17.00;99.90
17174;DHT22;8702;48.130;-1.696;2023-04-30T10:48:32;16.90;99.90
17174;DHT22;8702;48.130;-1.696;2023-04-30T10:51:00;16.90;99.90
17174;DHT22;8702;48.130;-1.696;2023-04-30T10:53:29;17.00;99.90
17174;DHT22;8702;48.130;-1.696;2023-04-30T10:55:58;17.20;99.90
17174;DHT22;8702;48.130;-1.696;2023-04-30T10:58:31;17.20;99.90
17174;DHT22;8702;48.130;-1.696;2023-04-30T11:01:02;17.10;99.90
17174;DHT22;8702;48.130;-1.696;2023-04-30T11:03:30;17.10;99.90
17174;DHT22;8702;48.130;-1.696;2023-04-30T11:05:59;17.30;99.90
17174;DHT22;8702;48.130;-1.696;2023-04-30T11:08:35;17.30;99.90
17174;DHT22;8702;48.130;-1.696;2023-04-30T11:11:03;17.40;99.90
17174;DHT22;8702;48.130;-1.696;2023-04-30T11:13:38;17.20;99.90
17174;DHT22;8702;48.130;-1.696;2023-04-30T11:16:08;17.10;99.90
17174;DHT22;8702;48.130;-1.696;2023-04-30T11:18:41;17.20;99.90
17174;DHT22;8702;48.130;-1.696;2023-04-30T11:21:08;17.30;99.90
17174;DHT22;8702;48.130;-1.696;2023-04-30T11:23:36;17.30;99.90
17174;DHT22;8702;48.130;-1.696;2023-04-30T11:26:07;17.40;99.90
17174;DHT22;8702;48.130;-1.696;2023-04-30T11:28:35;17.40;99.90
17174;DHT22;8702;48.130;-1.696;2023-04-30T11:31:03;17.30;99.90
17174;DHT22;8702;48.130;-1.696;2023-04-30T11:33:32;17.40;99.90
17174;DHT22;8702;48.130;-1.696;2023-04-30T11:36:00;17.30;99.90
17174;DHT22;8702;48.130;-1.696;2023-04-30T11:38:29;17.30;99.90
17174;DHT22;8702;48.130;-1.696;2023-04-30T11:40:57;17.30;99.90
17174;DHT22;8702;48.130;-1.696;2023-04-30T11:43:26;17.30;99.90
17174;DHT22;8702;48.130;-1.696;2023-04-30T11:46:05;17.30;99.90
17174;DHT22;8702;48.130;-1.696;2023-04-30T11:48:35;17.10;99.90
17174;DHT22;8702;48.130;-1.696;2023-04-30T11:51:03;16.90;99.90
17174;DHT22;8702;48.130;-1.696;2023-04-30T11:53:31;17.00;99.90
17174;DHT22;8702;48.130;-1.696;2023-04-30T11:56:02;16.90;99.90
17174;DHT22;8702;48.130;-1.696;2023-04-30T11:58:33;16.90;99.90
17174;DHT22;8702;48.130;-1.696;2023-04-30T12:01:00;17.00;99.90
17174;DHT22;8702;48.130;-1.696;2023-04-30T12:03:27;17.00;99.90
17174;DHT22;8702;48.130;-1.696;2023-04-30T12:05:57;16.90;99.90
17174;DHT22;8702;48.130;-1.696;2023-04-30T12:08:24;16.70;99.90
17174;DHT22;8702;48.130;-1.696;2023-04-30T12:10:51;16.70;99.90
17174;DHT22;8702;48.130;-1.696;2023-04-30T12:13:18;16.60;99.90
17174;DHT22;8702;48.130;-1.696;2023-04-30T12:15:56;16.60;99.90
17174;DHT22;8702;48.130;-1.696;2023-04-30T12:18:24;16.70;99.90
17174;DHT22;8702;48.130;-1.696;2023-04-30T12:20:51;16.60;99.90
17174;DHT22;8702;48.130;-1.696;2023-04-30T12:23:20;16.70;99.90
17174;DHT22;8702;48.130;-1.696;2023-04-30T12:25:47;16.80;99.90
17174;DHT22;8702;48.130;-1.696;2023-04-30T12:28:14;16.60;99.90
17174;DHT22;8702;48.130;-1.696;2023-04-30T12:30:42;16.60;99.90
17174;DHT22;8702;48.130;-1.696;2023-04-30T12:33:09;16.60;99.90
17174;DHT22;8702;48.130;-1.696;2023-04-30T12:35:41;16.60;99.90
17174;DHT22;8702;48.130;-1.696;2023-04-30T12:38:08;16.70;99.90
17174;DHT22;8702;48.130;-1.696;2023-04-30T12:40:37;16.60;99.90
17174;DHT22;8702;48.130;-1.696;2023-04-30T12:43:06;16.70;99.90
17174;DHT22;8702;48.130;-1.696;2023-04-30T12:45:45;16.70;99.90
17174;DHT22;8702;48.130;-1.696;2023-04-30T12:48:14;16.70;99.90
17174;DHT22;8702;48.130;-1.696;2023-04-30T12:50:41;16.70;99.90
17174;DHT22;8702;48.130;-1.696;2023-04-30T12:53:08;16.70;99.90
17174;DHT22;8702;48.130;-1.696;2023-04-30T12:55:37;16.90;99.90
17174;DHT22;8702;48.130;-1.696;2023-04-30T12:58:07;17.00;99.90
17174;DHT22;8702;48.130;-1.696;2023-04-30T13:00:48;17.10;99.90
17174;DHT22;8702;48.130;-1.696;2023-04-30T13:03:16;17.30;99.90
17174;DHT22;8702;48.130;-1.696;2023-04-30T13:05:49;17.40;99.90
17174;DHT22;8702;48.130;-1.696;2023-04-30T13:08:18;17.50;99.90
17174;DHT22;8702;48.130;-1.696;2023-04-30T13:10:48;17.50;99.90
17174;DHT22;8702;48.130;-1.696;2023-04-30T13:13:16;17.50;99.90
17174;DHT22;8702;48.130;-1.696;2023-04-30T13:15:44;17.50;99.90
17174;DHT22;8702;48.130;-1.696;2023-04-30T13:18:12;17.50;99.90
17174;DHT22;8702;48.130;-1.696;2023-04-30T13:20:41;17.50;99.90
17174;DHT22;8702;48.130;-1.696;2023-04-30T13:23:08;17.60;99.90
17174;DHT22;8702;48.130;-1.696;2023-04-30T13:25:37;17.60;99.90
17174;DHT22;8702;48.130;-1.696;2023-04-30T13:28:05;17.40;99.90
17174;DHT22;8702;48.130;-1.696;2023-04-30T13:30:32;17.40;99.90
17174;DHT22;8702;48.130;-1.696;2023-04-30T13:32:59;17.50;99.90
17174;DHT22;8702;48.130;-1.696;2023-04-30T13:35:27;17.50;99.90
17174;DHT22;8702;48.130;-1.696;2023-04-30T13:37:54;17.60;99.90
17174;DHT22;8702;48.130;-1.696;2023-04-30T13:40:22;17.70;99.90
17174;DHT22;8702;48.130;-1.696;2023-04-30T13:42:49;17.70;99.90
17174;DHT22;8702;48.130;-1.696;2023-04-30T13:45:17;17.70;99.90
17174;DHT22;8702;48.130;-1.696;2023-04-30T13:47:44;17.80;99.90
17174;DHT22;8702;48.130;-1.696;2023-04-30T13:50:12;17.90;99.90
17174;DHT22;8702;48.130;-1.696;2023-04-30T13:52:39;18.00;99.90
17174;DHT22;8702;48.130;-1.696;2023-04-30T13:55:07;18.20;99.90
17174;DHT22;8702;48.130;-1.696;2023-04-30T13:57:34;18.50;99.90
17174;DHT22;8702;48.130;-1.696;2023-04-30T14:00:02;18.50;99.90
17174;DHT22;8702;48.130;-1.696;2023-04-30T14:02:32;18.60;99.90
17174;DHT22;8702;48.130;-1.696;2023-04-30T14:04:58;18.70;99.90
17174;DHT22;8702;48.130;-1.696;2023-04-30T14:07:28;18.60;99.90
17174;DHT22;8702;48.130;-1.696;2023-04-30T14:09:55;18.70;99.90
17174;DHT22;8702;48.130;-1.696;2023-04-30T14:12:22;18.70;99.90
17174;DHT22;8702;48.130;-1.696;2023-04-30T14:14:49;18.90;99.90
17174;DHT22;8702;48.130;-1.696;2023-04-30T14:17:16;19.00;99.90
17174;DHT22;8702;48.130;-1.696;2023-04-30T14:19:45;19.10;99.90
17174;DHT22;8702;48.130;-1.696;2023-04-30T14:22:12;19.00;99.90
17174;DHT22;8702;48.130;-1.696;2023-04-30T14:24:39;18.80;99.90
17174;DHT22;8702;48.130;-1.696;2023-04-30T14:27:06;18.70;99.90
17174;DHT22;8702;48.130;-1.696;2023-04-30T14:29:33;18.70;99.90
17174;DHT22;8702;48.130;-1.696;2023-04-30T14:32:01;18.80;99.90
17174;DHT22;8702;48.130;-1.696;2023-04-30T14:34:28;18.80;99.90
17174;DHT22;8702;48.130;-1.696;2023-04-30T14:36:57;18.90;99.90
17174;DHT22;8702;48.130;-1.696;2023-04-30T14:39:26;18.80;99.90
17174;DHT22;8702;48.130;-1.696;2023-04-30T14:41:53;19.00;99.90
17174;DHT22;8702;48.130;-1.696;2023-04-30T14:44:21;19.10;99.90
17174;DHT22;8702;48.130;-1.696;2023-04-30T14:46:49;19.30;99.90
17174;DHT22;8702;48.130;-1.696;2023-04-30T14:49:16;19.50;99.90
17174;DHT22;8702;48.130;-1.696;2023-04-30T14:51:43;19.70;99.90
17174;DHT22;8702;48.130;-1.696;2023-04-30T14:54:11;19.70;99.90
17174;DHT22;8702;48.130;-1.696;2023-04-30T14:56:38;19.90;99.90
17174;DHT22;8702;48.130;-1.696;2023-04-30T14:59:05;20.40;99.90
17174;DHT22;8702;48.130;-1.696;2023-04-30T15:01:33;20.50;99.90
17174;DHT22;8702;48.130;-1.696;2023-04-30T15:03:59;20.40;99.90
17174;DHT22;8702;48.130;-1.696;2023-04-30T15:06:26;20.60;99.90
17174;DHT22;8702;48.130;-1.696;2023-04-30T15:08:53;21.00;99.90
17174;DHT22;8702;48.130;-1.696;2023-04-30T15:11:22;20.90;99.90
17174;DHT22;8702;48.130;-1.696;2023-04-30T15:13:51;21.20;99.90
17174;DHT22;8702;48.130;-1.696;2023-04-30T15:16:19;21.30;99.90
17174;DHT22;8702;48.130;-1.696;2023-04-30T15:18:46;21.40;99.90
17174;DHT22;8702;48.130;-1.696;2023-04-30T15:21:13;21.30;99.90
17174;DHT22;8702;48.130;-1.696;2023-04-30T15:23:40;21.00;99.90
17174;DHT22;8702;48.130;-1.696;2023-04-30T15:26:07;20.50;99.90
17174;DHT22;8702;48.130;-1.696;2023-04-30T15:28:36;20.20;99.90
17174;DHT22;8702;48.130;-1.696;2023-04-30T15:31:03;20.20;99.90
17174;DHT22;8702;48.130;-1.696;2023-04-30T15:33:30;19.90;99.90
17174;DHT22;8702;48.130;-1.696;2023-04-30T15:35:59;19.90;99.90
17174;DHT22;8702;48.130;-1.696;2023-04-30T15:38:26;19.80;99.90